sensor_id;sensor_type;location;lat;lon;timestamp;temperature;humidity
48208;DHT22;33997;53.278;9.708;2022-12-18T00:02:00;-3270.70;94.70
48208;DHT22;33997;53.278;9.708;2022-12-18T00:04:26;-3270.80;94.80
48208;DHT22;33997;53.278;9.708;2022-12-18T00:06:52;-3270.80;94.70
48208;DHT22;33997;53.278;9.708;2022-12-18T00:09:18;-3270.80;94.60
48208;DHT22;33997;53.278;9.708;2022-12-18T00:11:44;-3270.80;94.60
48208;DHT22;33997;53.278;9.708;2022-12-18T00:14:11;-3270.80;94.60
48208;DHT22;33997;53.278;9.708;2022-12-18T00:16:37;-3270.70;94.50
48208;DHT22;33997;53.278;9.708;2022-12-18T00:19:03;-3270.70;94.40
48208;DHT22;33997;53.278;9.708;2022-12-18T00:21:30;-3270.70;94.50
48208;DHT22;33997;53.278;9.708;2022-12-18T00:23:56;-3270.60;94.40
48208;DHT22;33997;53.278;9.708;2022-12-18T00:26:24;-3270.60;94.50
48208;DHT22;33997;53.278;9.708;2022-12-18T00:28:50;-3270.60;94.40
48208;DHT22;33997;53.278;9.708;2022-12-18T00:31:19;-3270.50;94.40
48208;DHT22;33997;53.278;9.708;2022-12-18T00:33:45;-3270.50;94.50
48208;DHT22;33997;53.278;9.708;2022-12-18T00:36:16;-3270.50;94.50
48208;DHT22;33997;53.278;9.708;2022-12-18T00:38:43;-3270.50;94.40
48208;DHT22;33997;53.278;9.708;2022-12-18T00:41:10;-3270.40;94.40
48208;DHT22;33997;53.278;9.708;2022-12-18T00:43:38;-3270.40;94.40
48208;DHT22;33997;53.278;9.708;2022-12-18T00:46:03;-3270.30;94.30
48208;DHT22;33997;53.278;9.708;2022-12-18T00:48:29;-3270.20;94.40
48208;DHT22;33997;53.278;9.708;2022-12-18T00:50:55;-3270.10;94.40
48208;DHT22;33997;53.278;9.708;2022-12-18T00:53:20;-3270.00;94.30
48208;DHT22;33997;53.278;9.708;2022-12-18T00:55:46;-3270.10;94.60
48208;DHT22;33997;53.278;9.708;2022-12-18T00:58:13;-3270.20;94.80
48208;DHT22;33997;53.278;9.708;2022-12-18T01:00:39;-3270.10;94.60
48208;DHT22;33997;53.278;9.708;2022-12-18T01:03:05;-3270.10;94.70
48208;DHT22;33997;53.278;9.708;2022-12-18T01:05:31;-3270.10;94.60
48208;DHT22;33997;53.278;9.708;2022-12-18T01:07:56;-3270.10;94.70
48208;DHT22;33997;53.278;9.708;2022-12-18T01:10:23;-3270.10;94.60
48208;DHT22;33997;53.278;9.708;2022-12-18T01:12:48;-3270.10;94.60
48208;DHT22;33997;53.278;9.708;2022-12-18T01:15:15;-3270.00;94.50
48208;DHT22;33997;53.278;9.708;2022-12-18T01:17:41;-3269.90;94.60
48208;DHT22;33997;53.278;9.708;2022-12-18T01:20:07;-3269.90;94.60
48208;DHT22;33997;53.278;9.708;2022-12-18T01:22:34;-3269.90;94.70
48208;DHT22;33997;53.278;9.708;2022-12-18T01:24:59;-3270.00;94.70
48208;DHT22;33997;53.278;9.708;2022-12-18T01:27:25;-3270.10;94.70
48208;DHT22;33997;53.278;9.708;2022-12-18T01:29:51;-3270.20;94.70
48208;DHT22;33997;53.278;9.708;2022-12-18T01:32:16;-3270.30;94.70
48208;DHT22;33997;53.278;9.708;2022-12-18T01:34:42;-3270.30;94.30
48208;DHT22;33997;53.278;9.708;2022-12-18T01:37:07;-3270.20;94.20
48208;DHT22;33997;53.278;9.708;2022-12-18T01:39:33;-3270.30;94.20
48208;DHT22;33997;53.278;9.708;2022-12-18T01:41:59;-3270.10;94.00
48208;DHT22;33997;53.278;9.708;2022-12-18T01:44:53;-3270.20;94.20
48208;DHT22;33997;53.278;9.708;2022-12-18T01:47:24;-3270.10;93.90
48208;DHT22;33997;53.278;9.708;2022-12-18T01:49:50;-3270.10;94.00
48208;DHT22;33997;53.278;9.708;2022-12-18T01:52:18;-3270.10;94.00
48208;DHT22;33997;53.278;9.708;2022-12-18T01:54:45;-3270.00;93.90
48208;DHT22;33997;53.278;9.708;2022-12-18T01:57:11;-3270.00;94.00
48208;DHT22;33997;53.278;9.708;2022-12-18T01:59:39;-3270.00;94.10
48208;DHT22;33997;53.278;9.708;2022-12-18T02:02:05;-3269.90;94.10
48208;DHT22;33997;53.278;9.708;2022-12-18T02:04:31;-3269.90;94.00
48208;DHT22;33997;53.278;9.708;2022-12-18T02:09:48;-3269.80;94.10
48208;DHT22;33997;53.278;9.708;2022-12-18T02:12:25;-3269.80;94.30
48208;DHT22;33997;53.278;9.708;2022-12-18T02:15:33;-3269.90;94.30
48208;DHT22;33997;53.278;9.708;2022-12-18T02:18:21;-3269.80;94.30
48208;DHT22;33997;53.278;9.708;2022-12-18T02:20:54;-3269.90;94.30
48208;DHT22;33997;53.278;9.708;2022-12-18T02:23:50;-3269.90;94.40
48208;DHT22;33997;53.278;9.708;2022-12-18T02:28:59;-3270.00;94.30
48208;DHT22;33997;53.278;9.708;2022-12-18T02:31:28;-3270.00;94.10
48208;DHT22;33997;53.278;9.708;2022-12-18T02:33:56;-3270.00;94.10
48208;DHT22;33997;53.278;9.708;2022-12-18T02:36:25;-3270.10;94.00
48208;DHT22;33997;53.278;9.708;2022-12-18T02:38:52;-3270.00;93.90
48208;DHT22;33997;53.278;9.708;2022-12-18T02:41:18;-3270.10;93.80
48208;DHT22;33997;53.278;9.708;2022-12-18T02:43:52;-3270.00;93.80
48208;DHT22;33997;53.278;9.708;2022-12-18T02:46:35;-3269.90;93.70
48208;DHT22;33997;53.278;9.708;2022-12-18T02:52:44;-3269.90;93.80
48208;DHT22;33997;53.278;9.708;2022-12-18T02:57:54;-3270.00;93.60
48208;DHT22;33997;53.278;9.708;2022-12-18T03:00:24;-3269.90;93.70
48208;DHT22;33997;53.278;9.708;2022-12-18T03:03:03;-3270.10;93.90
48208;DHT22;33997;53.278;9.708;2022-12-18T03:05:39;-3270.00;93.50
48208;DHT22;33997;53.278;9.708;2022-12-18T03:08:10;-3270.00;93.40
48208;DHT22;33997;53.278;9.708;2022-12-18T03:10:45;-3269.90;93.40
48208;DHT22;33997;53.278;9.708;2022-12-18T03:13:15;-3269.80;93.20
48208;DHT22;33997;53.278;9.708;2022-12-18T03:15:45;-3269.70;93.40
48208;DHT22;33997;53.278;9.708;2022-12-18T03:18:43;-3269.60;93.40
48208;DHT22;33997;53.278;9.708;2022-12-18T03:21:11;-3269.50;93.60
48208;DHT22;33997;53.278;9.708;2022-12-18T03:23:40;-3269.60;94.00
48208;DHT22;33997;53.278;9.708;2022-12-18T03:26:09;-3269.60;93.70
48208;DHT22;33997;53.278;9.708;2022-12-18T03:28:39;-3269.60;93.90
48208;DHT22;33997;53.278;9.708;2022-12-18T03:31:10;-3269.60;94.00
48208;DHT22;33997;53.278;9.708;2022-12-18T03:36:06;-3269.80;94.00
48208;DHT22;33997;53.278;9.708;2022-12-18T03:38:32;-3269.80;94.10
48208;DHT22;33997;53.278;9.708;2022-12-18T03:46:33;-3269.70;93.80
48208;DHT22;33997;53.278;9.708;2022-12-18T03:49:11;-3269.70;94.10
48208;DHT22;33997;53.278;9.708;2022-12-18T03:51:43;-3269.70;93.90
48208;DHT22;33997;53.278;9.708;2022-12-18T03:54:13;-3269.70;93.90
48208;DHT22;33997;53.278;9.708;2022-12-18T03:56:56;-3269.70;94.00
48208;DHT22;33997;53.278;9.708;2022-12-18T03:59:24;-3269.70;94.00
48208;DHT22;33997;53.278;9.708;2022-12-18T04:01:52;-3269.80;94.10
48208;DHT22;33997;53.278;9.708;2022-12-18T04:04:18;-3269.80;94.00
48208;DHT22;33997;53.278;9.708;2022-12-18T04:06:46;-3269.90;93.90
48208;DHT22;33997;53.278;9.708;2022-12-18T04:09:13;-3270.00;93.70
48208;DHT22;33997;53.278;9.708;2022-12-18T04:11:42;-3270.00;93.60
48208;DHT22;33997;53.278;9.708;2022-12-18T04:14:11;-3270.20;93.80
48208;DHT22;33997;53.278;9.708;2022-12-18T04:16:37;-3270.10;93.20
48208;DHT22;33997;53.278;9.708;2022-12-18T04:19:03;-3270.20;93.20
48208;DHT22;33997;53.278;9.708;2022-12-18T04:21:28;-3270.10;93.10
48208;DHT22;33997;53.278;9.708;2022-12-18T04:23:54;-3270.10;93.00
48208;DHT22;33997;53.278;9.708;2022-12-18T04:26:19;-3270.00;93.00
48208;DHT22;33997;53.278;9.708;2022-12-18T04:28:45;-3269.90;93.00
48208;DHT22;33997;53.278;9.708;2022-12-18T04:31:10;-3270.00;93.20
48208;DHT22;33997;53.278;9.708;2022-12-18T04:33:36;-3269.90;93.30
48208;DHT22;33997;53.278;9.708;2022-12-18T04:36:02;-3269.90;93.20
48208;DHT22;33997;53.278;9.708;2022-12-18T04:38:27;-3269.80;93.20
48208;DHT22;33997;53.278;9.708;2022-12-18T04:40:53;-3269.80;93.20
48208;DHT22;33997;53.278;9.708;2022-12-18T04:43:18;-3269.70;93.20
48208;DHT22;33997;53.278;9.708;2022-12-18T04:45:44;-3269.80;93.60
48208;DHT22;33997;53.278;9.708;2022-12-18T04:48:09;-3269.80;93.40
48208;DHT22;33997;53.278;9.708;2022-12-18T04:50:34;-3269.80;93.40
48208;DHT22;33997;53.278;9.708;2022-12-18T04:53:00;-3269.80;93.40
48208;DHT22;33997;53.278;9.708;2022-12-18T04:55:26;-3269.80;93.40
48208;DHT22;33997;53.278;9.708;2022-12-18T04:57:52;-3269.90;93.50
48208;DHT22;33997;53.278;9.708;2022-12-18T05:00:18;-3269.80;93.30
48208;DHT22;33997;53.278;9.708;2022-12-18T05:02:44;-3269.80;93.40
48208;DHT22;33997;53.278;9.708;2022-12-18T05:05:10;-3270.00;93.70
48208;DHT22;33997;53.278;9.708;2022-12-18T05:07:35;-3269.90;93.40
48208;DHT22;33997;53.278;9.708;2022-12-18T05:10:01;-3269.80;93.20
48208;DHT22;33997;53.278;9.708;2022-12-18T05:12:26;-3269.80;93.30
48208;DHT22;33997;53.278;9.708;2022-12-18T05:14:52;-3269.80;93.40
48208;DHT22;33997;53.278;9.708;2022-12-18T05:17:17;-3269.80;93.50
48208;DHT22;33997;53.278;9.708;2022-12-18T05:19:43;-3269.80;93.40
48208;DHT22;33997;53.278;9.708;2022-12-18T05:22:09;-3269.80;93.40
48208;DHT22;33997;53.278;9.708;2022-12-18T05:24:35;-3269.80;93.50
48208;DHT22;33997;53.278;9.708;2022-12-18T05:27:00;-3269.90;93.60
48208;DHT22;33997;53.278;9.708;2022-12-18T05:29:26;-3269.90;93.40
48208;DHT22;33997;53.278;9.708;2022-12-18T05:31:51;-3270.00;93.50
48208;DHT22;33997;53.278;9.708;2022-12-18T05:34:17;-3269.90;93.20
48208;DHT22;33997;53.278;9.708;2022-12-18T05:36:42;-3269.90;93.30
48208;DHT22;33997;53.278;9.708;2022-12-18T05:39:08;-3270.00;93.40
48208;DHT22;33997;53.278;9.708;2022-12-18T05:41:34;-3270.00;93.20
48208;DHT22;33997;53.278;9.708;2022-12-18T05:43:59;-3270.00;93.10
48208;DHT22;33997;53.278;9.708;2022-12-18T05:46:25;-3270.10;93.10
48208;DHT22;33997;53.278;9.708;2022-12-18T05:48:51;-3270.10;93.10
48208;DHT22;33997;53.278;9.708;2022-12-18T05:51:18;-3270.10;92.90
48208;DHT22;33997;53.278;9.708;2022-12-18T05:53:44;-3270.10;93.00
48208;DHT22;33997;53.278;9.708;2022-12-18T05:56:19;-3270.00;92.90
48208;DHT22;33997;53.278;9.708;2022-12-18T05:58:45;-3270.00;93.00
48208;DHT22;33997;53.278;9.708;2022-12-18T06:01:20;-3269.90;92.90
48208;DHT22;33997;53.278;9.708;2022-12-18T06:03:46;-3270.00;93.20
48208;DHT22;33997;53.278;9.708;2022-12-18T06:06:16;-3269.90;93.00
48208;DHT22;33997;53.278;9.708;2022-12-18T06:08:43;-3270.00;93.30
48208;DHT22;33997;53.278;9.708;2022-12-18T06:11:08;-3269.90;93.20
48208;DHT22;33997;53.278;9.708;2022-12-18T06:13:34;-3270.00;93.30
48208;DHT22;33997;53.278;9.708;2022-12-18T06:16:02;-3270.10;93.30
48208;DHT22;33997;53.278;9.708;2022-12-18T06:18:28;-3270.00;93.00
48208;DHT22;33997;53.278;9.708;2022-12-18T06:20:58;-3270.00;93.10
48208;DHT22;33997;53.278;9.708;2022-12-18T06:23:24;-3270.10;93.20
48208;DHT22;33997;53.278;9.708;2022-12-18T06:25:50;-3270.00;93.00
48208;DHT22;33997;53.278;9.708;2022-12-18T06:28:15;-3270.00;93.10
48208;DHT22;33997;53.278;9.708;2022-12-18T06:30:44;-3270.00;93.20
48208;DHT22;33997;53.278;9.708;2022-12-18T06:33:09;-3270.00;93.20
48208;DHT22;33997;53.278;9.708;2022-12-18T06:35:35;-3270.10;93.40
48208;DHT22;33997;53.278;9.708;2022-12-18T06:38:01;-3270.00;93.10
48208;DHT22;33997;53.278;9.708;2022-12-18T06:40:27;-3270.10;93.20
48208;DHT22;33997;53.278;9.708;2022-12-18T06:42:52;-3270.00;93.10
48208;DHT22;33997;53.278;9.708;2022-12-18T06:45:18;-3270.00;93.00
48208;DHT22;33997;53.278;9.708;2022-12-18T06:47:43;-3270.00;93.10
48208;DHT22;33997;53.278;9.708;2022-12-18T06:50:09;-3269.90;93.10
48208;DHT22;33997;53.278;9.708;2022-12-18T06:52:34;-3269.90;93.20
48208;DHT22;33997;53.278;9.708;2022-12-18T06:55:00;-3269.90;93.20
48208;DHT22;33997;53.278;9.708;2022-12-18T06:57:25;-3269.90;93.30
48208;DHT22;33997;53.278;9.708;2022-12-18T06:59:51;-3269.90;93.30
48208;DHT22;33997;53.278;9.708;2022-12-18T07:02:17;-3270.10;93.60
48208;DHT22;33997;53.278;9.708;2022-12-18T07:04:42;-3270.00;93.30
48208;DHT22;33997;53.278;9.708;2022-12-18T07:07:08;-3270.10;93.20
48208;DHT22;33997;53.278;9.708;2022-12-18T07:09:33;-3270.10;93.20
48208;DHT22;33997;53.278;9.708;2022-12-18T07:11:59;-3270.10;93.20
48208;DHT22;33997;53.278;9.708;2022-12-18T07:14:24;-3270.20;93.40
48208;DHT22;33997;53.278;9.708;2022-12-18T07:16:50;-3270.10;93.30
48208;DHT22;33997;53.278;9.708;2022-12-18T07:19:15;-3270.10;93.10
48208;DHT22;33997;53.278;9.708;2022-12-18T07:21:41;-3270.10;93.20
48208;DHT22;33997;53.278;9.708;2022-12-18T07:24:06;-3270.10;93.10
48208;DHT22;33997;53.278;9.708;2022-12-18T07:26:32;-3270.00;93.00
48208;DHT22;33997;53.278;9.708;2022-12-18T07:28:58;-3270.00;93.10
48208;DHT22;33997;53.278;9.708;2022-12-18T07:31:24;-3269.90;93.20
48208;DHT22;33997;53.278;9.708;2022-12-18T07:33:50;-3269.90;93.20
48208;DHT22;33997;53.278;9.708;2022-12-18T07:36:16;-3269.90;93.30
48208;DHT22;33997;53.278;9.708;2022-12-18T07:38:42;-3269.90;93.20
48208;DHT22;33997;53.278;9.708;2022-12-18T07:41:10;-3269.80;93.20
48208;DHT22;33997;53.278;9.708;2022-12-18T07:43:37;-3269.80;93.40
48208;DHT22;33997;53.278;9.708;2022-12-18T07:46:03;-3269.80;93.40
48208;DHT22;33997;53.278;9.708;2022-12-18T07:48:29;-3269.90;93.50
48208;DHT22;33997;53.278;9.708;2022-12-18T07:50:58;-3270.00;93.60
48208;DHT22;33997;53.278;9.708;2022-12-18T07:53:24;-3270.10;93.50
48208;DHT22;33997;53.278;9.708;2022-12-18T07:55:55;-3270.10;93.30
48208;DHT22;33997;53.278;9.708;2022-12-18T07:58:21;-3270.20;93.30
48208;DHT22;33997;53.278;9.708;2022-12-18T08:00:46;-3270.30;93.20
48208;DHT22;33997;53.278;9.708;2022-12-18T08:03:12;-3270.30;92.90
48208;DHT22;33997;53.278;9.708;2022-12-18T08:05:37;-3270.30;92.90
48208;DHT22;33997;53.278;9.708;2022-12-18T08:08:03;-3270.30;93.00
48208;DHT22;33997;53.278;9.708;2022-12-18T08:10:28;-3270.30;93.00
48208;DHT22;33997;53.278;9.708;2022-12-18T08:12:54;-3270.40;92.90
48208;DHT22;33997;53.278;9.708;2022-12-18T08:15:19;-3270.30;92.80
48208;DHT22;33997;53.278;9.708;2022-12-18T08:17:44;-3270.30;92.80
48208;DHT22;33997;53.278;9.708;2022-12-18T08:20:10;-3270.30;92.80
48208;DHT22;33997;53.278;9.708;2022-12-18T08:22:36;-3270.30;92.80
48208;DHT22;33997;53.278;9.708;2022-12-18T08:25:02;-3270.30;92.80
48208;DHT22;33997;53.278;9.708;2022-12-18T08:27:28;-3270.40;92.80
48208;DHT22;33997;53.278;9.708;2022-12-18T08:29:54;-3270.40;92.70
48208;DHT22;33997;53.278;9.708;2022-12-18T08:32:20;-3270.40;92.60
48208;DHT22;33997;53.278;9.708;2022-12-18T08:34:45;-3270.40;92.60
48208;DHT22;33997;53.278;9.708;2022-12-18T08:37:11;-3270.50;92.50
48208;DHT22;33997;53.278;9.708;2022-12-18T08:39:36;-3270.50;92.50
48208;DHT22;33997;53.278;9.708;2022-12-18T08:42:02;-3270.60;92.50
48208;DHT22;33997;53.278;9.708;2022-12-18T08:44:46;-3270.60;92.50
48208;DHT22;33997;53.278;9.708;2022-12-18T08:47:11;-3270.70;92.30
48208;DHT22;33997;53.278;9.708;2022-12-18T08:49:37;-3270.80;91.90
48208;DHT22;33997;53.278;9.708;2022-12-18T08:52:02;-3270.90;91.50
48208;DHT22;33997;53.278;9.708;2022-12-18T08:54:28;-3271.00;91.50
48208;DHT22;33997;53.278;9.708;2022-12-18T08:56:54;-3271.10;91.60
48208;DHT22;33997;53.278;9.708;2022-12-18T08:59:19;-3271.10;91.50
48208;DHT22;33997;53.278;9.708;2022-12-18T09:01:45;-3271.20;91.30
48208;DHT22;33997;53.278;9.708;2022-12-18T09:04:11;-3271.20;91.40
48208;DHT22;33997;53.278;9.708;2022-12-18T09:06:37;-3271.30;91.40
48208;DHT22;33997;53.278;9.708;2022-12-18T09:09:03;-3271.30;91.40
48208;DHT22;33997;53.278;9.708;2022-12-18T09:11:30;-3271.50;91.10
48208;DHT22;33997;53.278;9.708;2022-12-18T09:13:56;-3271.50;91.10
48208;DHT22;33997;53.278;9.708;2022-12-18T09:16:23;-3271.50;91.10
48208;DHT22;33997;53.278;9.708;2022-12-18T09:18:49;-3271.60;91.00
48208;DHT22;33997;53.278;9.708;2022-12-18T09:21:20;-3271.70;91.00
48208;DHT22;33997;53.278;9.708;2022-12-18T09:23:50;-3271.70;90.70
48208;DHT22;33997;53.278;9.708;2022-12-18T09:26:16;-3271.80;90.70
48208;DHT22;33997;53.278;9.708;2022-12-18T09:28:42;-3272.00;90.20
48208;DHT22;33997;53.278;9.708;2022-12-18T09:31:08;-3272.10;90.10
48208;DHT22;33997;53.278;9.708;2022-12-18T09:33:35;-3272.20;89.50
48208;DHT22;33997;53.278;9.708;2022-12-18T09:36:04;-3272.30;89.60
48208;DHT22;33997;53.278;9.708;2022-12-18T09:38:30;-3272.30;89.60
48208;DHT22;33997;53.278;9.708;2022-12-18T09:43:52;-3272.50;89.50
48208;DHT22;33997;53.278;9.708;2022-12-18T09:46:26;-3272.60;89.10
48208;DHT22;33997;53.278;9.708;2022-12-18T09:48:55;-3272.70;89.10
48208;DHT22;33997;53.278;9.708;2022-12-18T09:54:18;-3273.00;88.50
48208;DHT22;33997;53.278;9.708;2022-12-18T09:56:45;-3273.10;88.10
48208;DHT22;33997;53.278;9.708;2022-12-18T09:59:19;-3273.20;87.90
48208;DHT22;33997;53.278;9.708;2022-12-18T10:01:46;-3273.40;86.80
48208;DHT22;33997;53.278;9.708;2022-12-18T10:04:11;-3273.50;86.50
48208;DHT22;33997;53.278;9.708;2022-12-18T10:06:49;-3273.70;86.70
48208;DHT22;33997;53.278;9.708;2022-12-18T10:09:37;-3273.80;86.20
48208;DHT22;33997;53.278;9.708;2022-12-18T10:21:11;-3274.00;84.60
48208;DHT22;33997;53.278;9.708;2022-12-18T10:23:52;-3273.90;84.90
48208;DHT22;33997;53.278;9.708;2022-12-18T10:26:20;-3274.00;85.20
48208;DHT22;33997;53.278;9.708;2022-12-18T10:28:45;-3274.10;84.30
48208;DHT22;33997;53.278;9.708;2022-12-18T10:31:17;-3274.10;84.20
48208;DHT22;33997;53.278;9.708;2022-12-18T10:33:43;-3274.10;84.40
48208;DHT22;33997;53.278;9.708;2022-12-18T10:36:09;-3274.10;84.30
48208;DHT22;33997;53.278;9.708;2022-12-18T10:38:35;-3274.20;84.00
48208;DHT22;33997;53.278;9.708;2022-12-18T10:41:02;-3274.30;84.30
48208;DHT22;33997;53.278;9.708;2022-12-18T10:43:32;-3274.30;83.70
48208;DHT22;33997;53.278;9.708;2022-12-18T10:46:01;-3274.30;84.00
48208;DHT22;33997;53.278;9.708;2022-12-18T10:48:28;-3274.30;84.50
48208;DHT22;33997;53.278;9.708;2022-12-18T10:50:54;-3274.20;84.40
48208;DHT22;33997;53.278;9.708;2022-12-18T10:53:23;-3274.10;84.30
48208;DHT22;33997;53.278;9.708;2022-12-18T10:55:51;-3274.20;84.40
48208;DHT22;33997;53.278;9.708;2022-12-18T10:58:34;-3274.20;84.70
48208;DHT22;33997;53.278;9.708;2022-12-18T11:03:58;-3274.30;84.50
48208;DHT22;33997;53.278;9.708;2022-12-18T11:06:25;-3274.30;84.10
48208;DHT22;33997;53.278;9.708;2022-12-18T11:09:20;-3274.50;84.00
48208;DHT22;33997;53.278;9.708;2022-12-18T11:11:57;-3274.50;83.70
48208;DHT22;33997;53.278;9.708;2022-12-18T11:14:29;-3274.60;84.50
48208;DHT22;33997;53.278;9.708;2022-12-18T11:16:58;-3274.60;83.60
48208;DHT22;33997;53.278;9.708;2022-12-18T11:21:50;-3274.80;83.10
48208;DHT22;33997;53.278;9.708;2022-12-18T11:24:35;-3274.90;82.70
48208;DHT22;33997;53.278;9.708;2022-12-18T11:27:03;-3275.00;82.50
48208;DHT22;33997;53.278;9.708;2022-12-18T11:29:35;-3275.10;82.70
48208;DHT22;33997;53.278;9.708;2022-12-18T11:32:28;-3275.10;82.60
48208;DHT22;33997;53.278;9.708;2022-12-18T11:35:03;-3275.10;82.60
48208;DHT22;33997;53.278;9.708;2022-12-18T11:37:29;-3275.20;82.60
48208;DHT22;33997;53.278;9.708;2022-12-18T11:39:59;-3275.30;81.90
48208;DHT22;33997;53.278;9.708;2022-12-18T11:42:41;-3275.50;82.60
48208;DHT22;33997;53.278;9.708;2022-12-18T11:47:51;-3275.70;80.90
48208;DHT22;33997;53.278;9.708;2022-12-18T11:50:20;-3275.80;81.60
48208;DHT22;33997;53.278;9.708;2022-12-18T11:52:47;-3275.90;81.30
48208;DHT22;33997;53.278;9.708;2022-12-18T11:55:25;-3275.90;80.90
48208;DHT22;33997;53.278;9.708;2022-12-18T11:58:14;-3275.80;80.90
48208;DHT22;33997;53.278;9.708;2022-12-18T12:00:51;-3275.80;80.40
48208;DHT22;33997;53.278;9.708;2022-12-18T12:06:10;-3275.70;80.00
48208;DHT22;33997;53.278;9.708;2022-12-18T12:08:53;-3275.70;80.80
48208;DHT22;33997;53.278;9.708;2022-12-18T12:11:52;-3275.70;79.80
48208;DHT22;33997;53.278;9.708;2022-12-18T12:14:42;-3275.70;80.10
48208;DHT22;33997;53.278;9.708;2022-12-18T12:17:32;-3275.80;80.30
48208;DHT22;33997;53.278;9.708;2022-12-18T12:20:13;-3275.80;80.20
48208;DHT22;33997;53.278;9.708;2022-12-18T12:22:58;-3275.90;80.30
48208;DHT22;33997;53.278;9.708;2022-12-18T12:25:47;-3276.00;80.10
48208;DHT22;33997;53.278;9.708;2022-12-18T12:31:41;-3275.90;80.70
48208;DHT22;33997;53.278;9.708;2022-12-18T12:34:23;-3275.90;79.80
48208;DHT22;33997;53.278;9.708;2022-12-18T12:39:34;-3276.00;79.60
48208;DHT22;33997;53.278;9.708;2022-12-18T12:42:02;-3276.00;78.70
48208;DHT22;33997;53.278;9.708;2022-12-18T12:44:51;-3276.00;78.90
48208;DHT22;33997;53.278;9.708;2022-12-18T12:47:32;-3276.00;78.80
48208;DHT22;33997;53.278;9.708;2022-12-18T12:50:01;-3275.90;78.50
48208;DHT22;33997;53.278;9.708;2022-12-18T12:52:31;-3275.90;79.00
48208;DHT22;33997;53.278;9.708;2022-12-18T12:54:59;-3275.90;78.70
48208;DHT22;33997;53.278;9.708;2022-12-18T12:57:33;-3275.90;78.60
48208;DHT22;33997;53.278;9.708;2022-12-18T13:00:09;-3275.90;78.60
48208;DHT22;33997;53.278;9.708;2022-12-18T13:03:03;-3275.80;78.80
48208;DHT22;33997;53.278;9.708;2022-12-18T13:05:50;-3275.90;78.70
48208;DHT22;33997;53.278;9.708;2022-12-18T13:08:25;-3275.90;77.90
48208;DHT22;33997;53.278;9.708;2022-12-18T13:10:52;-3275.90;78.30
48208;DHT22;33997;53.278;9.708;2022-12-18T13:13:53;-3275.90;78.00
48208;DHT22;33997;53.278;9.708;2022-12-18T13:16:23;-3275.90;77.70
48208;DHT22;33997;53.278;9.708;2022-12-18T13:18:51;-3275.90;78.40
48208;DHT22;33997;53.278;9.708;2022-12-18T13:21:23;-3275.80;78.40
48208;DHT22;33997;53.278;9.708;2022-12-18T13:23:50;-3275.80;78.80
48208;DHT22;33997;53.278;9.708;2022-12-18T13:34:25;-3275.60;78.70
48208;DHT22;33997;53.278;9.708;2022-12-18T13:36:52;-3275.50;79.20
48208;DHT22;33997;53.278;9.708;2022-12-18T13:42:31;-3275.30;79.00
48208;DHT22;33997;53.278;9.708;2022-12-18T13:44:59;-3275.30;80.00
48208;DHT22;33997;53.278;9.708;2022-12-18T13:47:33;-3275.10;80.00
48208;DHT22;33997;53.278;9.708;2022-12-18T13:49:59;-3275.10;80.40
48208;DHT22;33997;53.278;9.708;2022-12-18T13:52:33;-3275.00;80.70
48208;DHT22;33997;53.278;9.708;2022-12-18T13:55:02;-3275.00;81.00
48208;DHT22;33997;53.278;9.708;2022-12-18T13:57:35;-3275.00;81.10
48208;DHT22;33997;53.278;9.708;2022-12-18T14:00:23;-3275.00;81.70
48208;DHT22;33997;53.278;9.708;2022-12-18T14:02:49;-3274.90;82.10
48208;DHT22;33997;53.278;9.708;2022-12-18T14:05:43;-3274.80;82.10
48208;DHT22;33997;53.278;9.708;2022-12-18T14:08:12;-3274.80;82.60
48208;DHT22;33997;53.278;9.708;2022-12-18T14:10:44;-3274.80;82.70
48208;DHT22;33997;53.278;9.708;2022-12-18T14:13:16;-3274.80;82.60
48208;DHT22;33997;53.278;9.708;2022-12-18T14:15:45;-3274.70;82.80
48208;DHT22;33997;53.278;9.708;2022-12-18T14:18:22;-3274.70;83.20
48208;DHT22;33997;53.278;9.708;2022-12-18T14:20:50;-3274.70;83.30
48208;DHT22;33997;53.278;9.708;2022-12-18T14:23:39;-3274.60;83.30
48208;DHT22;33997;53.278;9.708;2022-12-18T14:26:25;-3274.60;83.40
48208;DHT22;33997;53.278;9.708;2022-12-18T14:28:53;-3274.60;83.60
48208;DHT22;33997;53.278;9.708;2022-12-18T14:31:24;-3274.60;83.60
48208;DHT22;33997;53.278;9.708;2022-12-18T14:33:50;-3274.60;83.50
48208;DHT22;33997;53.278;9.708;2022-12-18T14:36:19;-3274.50;83.70
48208;DHT22;33997;53.278;9.708;2022-12-18T14:38:49;-3274.50;83.60
48208;DHT22;33997;53.278;9.708;2022-12-18T14:41:17;-3274.50;83.80
48208;DHT22;33997;53.278;9.708;2022-12-18T14:43:44;-3274.40;83.70
48208;DHT22;33997;53.278;9.708;2022-12-18T14:46:34;-3274.40;83.90
48208;DHT22;33997;53.278;9.708;2022-12-18T14:49:18;-3274.30;84.00
48208;DHT22;33997;53.278;9.708;2022-12-18T14:51:50;-3274.30;84.20
48208;DHT22;33997;53.278;9.708;2022-12-18T14:54:18;-3274.20;84.30
48208;DHT22;33997;53.278;9.708;2022-12-18T14:56:46;-3274.20;84.30
48208;DHT22;33997;53.278;9.708;2022-12-18T14:59:21;-3274.20;84.10
48208;DHT22;33997;53.278;9.708;2022-12-18T15:02:18;-3274.10;84.30
48208;DHT22;33997;53.278;9.708;2022-12-18T15:04:46;-3274.10;84.30
48208;DHT22;33997;53.278;9.708;2022-12-18T15:07:21;-3274.10;84.30
48208;DHT22;33997;53.278;9.708;2022-12-18T15:10:19;-3274.00;84.50
48208;DHT22;33997;53.278;9.708;2022-12-18T15:12:49;-3273.90;84.60
48208;DHT22;33997;53.278;9.708;2022-12-18T15:18:00;-3273.90;84.90
48208;DHT22;33997;53.278;9.708;2022-12-18T15:20:26;-3273.80;85.00
48208;DHT22;33997;53.278;9.708;2022-12-18T15:22:52;-3273.70;85.20
48208;DHT22;33997;53.278;9.708;2022-12-18T15:25:32;-3273.60;85.40
48208;DHT22;33997;53.278;9.708;2022-12-18T15:27:59;-3273.60;85.70
48208;DHT22;33997;53.278;9.708;2022-12-18T15:30:25;-3273.60;85.80
48208;DHT22;33997;53.278;9.708;2022-12-18T15:32:51;-3273.60;85.90
48208;DHT22;33997;53.278;9.708;2022-12-18T15:35:19;-3273.60;86.20
48208;DHT22;33997;53.278;9.708;2022-12-18T15:37:45;-3273.50;86.10
48208;DHT22;33997;53.278;9.708;2022-12-18T15:40:24;-3273.50;86.30
48208;DHT22;33997;53.278;9.708;2022-12-18T15:42:53;-3273.50;86.40
48208;DHT22;33997;53.278;9.708;2022-12-18T15:45:38;-3273.50;86.30
48208;DHT22;33997;53.278;9.708;2022-12-18T15:48:20;-3273.50;86.40
48208;DHT22;33997;53.278;9.708;2022-12-18T15:50:46;-3273.50;86.50
48208;DHT22;33997;53.278;9.708;2022-12-18T15:53:11;-3273.50;86.60
48208;DHT22;33997;53.278;9.708;2022-12-18T15:55:37;-3273.50;86.70
48208;DHT22;33997;53.278;9.708;2022-12-18T15:58:21;-3273.50;86.80
48208;DHT22;33997;53.278;9.708;2022-12-18T16:00:47;-3273.60;86.70
48208;DHT22;33997;53.278;9.708;2022-12-18T16:03:12;-3273.60;86.70
48208;DHT22;33997;53.278;9.708;2022-12-18T16:05:38;-3273.50;87.00
48208;DHT22;33997;53.278;9.708;2022-12-18T16:08:03;-3273.50;86.90
48208;DHT22;33997;53.278;9.708;2022-12-18T16:10:29;-3273.50;86.90